sensor_id;sensor_type;location;lat;lon;timestamp;P1;durP1;ratioP1;P2;durP2;ratioP2
78887;SDS011;68276;49.326;8.690;2023-06-04T00:01:03;4.40;;;1.00;;
78887;SDS011;68276;49.326;8.690;2023-06-04T00:03:29;3.95;;;1.00;;
78887;SDS011;68276;49.326;8.690;2023-06-04T00:05:55;6.45;;;1.15;;
78887;SDS011;68276;49.326;8.690;2023-06-04T00:08:21;5.10;;;1.30;;
78887;SDS011;68276;49.326;8.690;2023-06-04T00:10:46;4.38;;;1.20;;
78887;SDS011;68276;49.326;8.690;2023-06-04T00:13:12;5.05;;;1.20;;
78887;SDS011;68276;49.326;8.690;2023-06-04T00:15:38;4.65;;;1.00;;
78887;SDS011;68276;49.326;8.690;2023-06-04T00:18:03;6.05;;;1.23;;
78887;SDS011;68276;49.326;8.690;2023-06-04T00:20:29;6.57;;;1.27;;
78887;SDS011;68276;49.326;8.690;2023-06-04T00:22:54;3.10;;;1.00;;
78887;SDS011;68276;49.326;8.690;2023-06-04T00:25:19;4.00;;;1.00;;
78887;SDS011;68276;49.326;8.690;2023-06-04T00:27:45;4.17;;;0.87;;
78887;SDS011;68276;49.326;8.690;2023-06-04T00:30:10;3.90;;;1.05;;
78887;SDS011;68276;49.326;8.690;2023-06-04T00:32:36;3.70;;;0.98;;
78887;SDS011;68276;49.326;8.690;2023-06-04T00:35:02;4.17;;;1.10;;
78887;SDS011;68276;49.326;8.690;2023-06-04T00:37:28;5.93;;;1.20;;
78887;SDS011;68276;49.326;8.690;2023-06-04T00:39:54;6.72;;;1.25;;
78887;SDS011;68276;49.326;8.690;2023-06-04T00:42:19;4.28;;;0.90;;
78887;SDS011;68276;49.326;8.690;2023-06-04T00:44:45;3.83;;;1.10;;
78887;SDS011;68276;49.326;8.690;2023-06-04T00:47:14;3.78;;;0.95;;
78887;SDS011;68276;49.326;8.690;2023-06-04T00:49:40;3.17;;;0.98;;
78887;SDS011;68276;49.326;8.690;2023-06-04T00:52:07;5.82;;;1.15;;
78887;SDS011;68276;49.326;8.690;2023-06-04T00:54:33;3.40;;;0.80;;
78887;SDS011;68276;49.326;8.690;2023-06-04T00:56:59;4.25;;;1.10;;
78887;SDS011;68276;49.326;8.690;2023-06-04T00:59:25;3.55;;;1.00;;
78887;SDS011;68276;49.326;8.690;2023-06-04T01:01:56;7.18;;;1.10;;
78887;SDS011;68276;49.326;8.690;2023-06-04T01:07:09;4.38;;;1.33;;
78887;SDS011;68276;49.326;8.690;2023-06-04T01:09:38;3.38;;;1.00;;
78887;SDS011;68276;49.326;8.690;2023-06-04T01:12:04;3.65;;;0.90;;
78887;SDS011;68276;49.326;8.690;2023-06-04T01:14:33;4.10;;;0.95;;
78887;SDS011;68276;49.326;8.690;2023-06-04T01:16:59;2.40;;;0.98;;
78887;SDS011;68276;49.326;8.690;2023-06-04T01:25:33;3.75;;;1.08;;
78887;SDS011;68276;49.326;8.690;2023-06-04T01:28:01;2.42;;;0.82;;
78887;SDS011;68276;49.326;8.690;2023-06-04T01:30:29;3.50;;;1.00;;
78887;SDS011;68276;49.326;8.690;2023-06-04T01:32:59;3.70;;;0.90;;
78887;SDS011;68276;49.326;8.690;2023-06-04T01:35:26;3.45;;;0.93;;
78887;SDS011;68276;49.326;8.690;2023-06-04T01:37:52;5.00;;;1.00;;
78887;SDS011;68276;49.326;8.690;2023-06-04T01:40:20;6.30;;;1.23;;
78887;SDS011;68276;49.326;8.690;2023-06-04T01:45:11;4.10;;;1.10;;
78887;SDS011;68276;49.326;8.690;2023-06-04T01:47:36;3.20;;;0.80;;
78887;SDS011;68276;49.326;8.690;2023-06-04T01:50:02;3.15;;;0.80;;
78887;SDS011;68276;49.326;8.690;2023-06-04T01:52:30;3.05;;;0.90;;
78887;SDS011;68276;49.326;8.690;2023-06-04T01:54:55;3.50;;;1.00;;
78887;SDS011;68276;49.326;8.690;2023-06-04T01:57:21;3.40;;;0.93;;
78887;SDS011;68276;49.326;8.690;2023-06-04T01:59:47;2.63;;;0.80;;
78887;SDS011;68276;49.326;8.690;2023-06-04T02:02:13;4.55;;;1.10;;
78887;SDS011;68276;49.326;8.690;2023-06-04T02:04:39;3.83;;;0.90;;
78887;SDS011;68276;49.326;8.690;2023-06-04T02:07:08;2.67;;;0.82;;
78887;SDS011;68276;49.326;8.690;2023-06-04T02:09:34;4.22;;;1.00;;
78887;SDS011;68276;49.326;8.690;2023-06-04T02:12:00;5.05;;;1.10;;
78887;SDS011;68276;49.326;8.690;2023-06-04T02:14:25;5.32;;;1.00;;
78887;SDS011;68276;49.326;8.690;2023-06-04T02:16:51;4.82;;;1.13;;
78887;SDS011;68276;49.326;8.690;2023-06-04T02:19:18;3.58;;;1.20;;
78887;SDS011;68276;49.326;8.690;2023-06-04T02:21:44;3.67;;;1.08;;
78887;SDS011;68276;49.326;8.690;2023-06-04T02:24:10;4.78;;;1.00;;
78887;SDS011;68276;49.326;8.690;2023-06-04T02:26:35;3.83;;;1.00;;
78887;SDS011;68276;49.326;8.690;2023-06-04T02:29:01;2.87;;;0.93;;
78887;SDS011;68276;49.326;8.690;2023-06-04T02:31:27;4.00;;;1.10;;
78887;SDS011;68276;49.326;8.690;2023-06-04T02:33:52;3.30;;;0.90;;
78887;SDS011;68276;49.326;8.690;2023-06-04T02:36:17;5.60;;;0.87;;
78887;SDS011;68276;49.326;8.690;2023-06-04T02:38:43;3.15;;;0.90;;
78887;SDS011;68276;49.326;8.690;2023-06-04T02:41:08;1.42;;;0.80;;
78887;SDS011;68276;49.326;8.690;2023-06-04T02:43:34;3.35;;;0.90;;
78887;SDS011;68276;49.326;8.690;2023-06-04T02:45:59;2.63;;;0.90;;
78887;SDS011;68276;49.326;8.690;2023-06-04T02:48:25;6.32;;;1.00;;
78887;SDS011;68276;49.326;8.690;2023-06-04T02:50:50;4.70;;;0.80;;
78887;SDS011;68276;49.326;8.690;2023-06-04T02:53:16;6.40;;;1.10;;
78887;SDS011;68276;49.326;8.690;2023-06-04T02:55:41;2.33;;;0.90;;
78887;SDS011;68276;49.326;8.690;2023-06-04T02:58:06;5.10;;;0.80;;
78887;SDS011;68276;49.326;8.690;2023-06-04T03:00:33;3.42;;;0.90;;
78887;SDS011;68276;49.326;8.690;2023-06-04T03:03:00;4.22;;;1.38;;
78887;SDS011;68276;49.326;8.690;2023-06-04T03:05:28;3.10;;;0.75;;
78887;SDS011;68276;49.326;8.690;2023-06-04T03:07:56;4.57;;;0.88;;
78887;SDS011;68276;49.326;8.690;2023-06-04T03:10:23;4.05;;;1.00;;
78887;SDS011;68276;49.326;8.690;2023-06-04T03:12:49;4.97;;;1.00;;
78887;SDS011;68276;49.326;8.690;2023-06-04T03:15:14;1.33;;;0.55;;
78887;SDS011;68276;49.326;8.690;2023-06-04T03:17:40;7.90;;;1.00;;
78887;SDS011;68276;49.326;8.690;2023-06-04T03:22:32;4.78;;;1.10;;
78887;SDS011;68276;49.326;8.690;2023-06-04T03:24:58;4.85;;;1.20;;
78887;SDS011;68276;49.326;8.690;2023-06-04T03:27:24;4.10;;;1.00;;
78887;SDS011;68276;49.326;8.690;2023-06-04T03:29:49;4.40;;;0.90;;
78887;SDS011;68276;49.326;8.690;2023-06-04T03:32:15;3.38;;;0.80;;
78887;SDS011;68276;49.326;8.690;2023-06-04T03:34:41;3.67;;;1.05;;
78887;SDS011;68276;49.326;8.690;2023-06-04T03:37:06;3.88;;;1.20;;
78887;SDS011;68276;49.326;8.690;2023-06-04T03:39:31;2.23;;;1.00;;
78887;SDS011;68276;49.326;8.690;2023-06-04T03:41:57;3.40;;;1.03;;
78887;SDS011;68276;49.326;8.690;2023-06-04T03:44:22;3.03;;;0.90;;
78887;SDS011;68276;49.326;8.690;2023-06-04T03:46:48;3.40;;;0.80;;
78887;SDS011;68276;49.326;8.690;2023-06-04T03:49:13;2.85;;;0.90;;
78887;SDS011;68276;49.326;8.690;2023-06-04T03:51:40;3.17;;;0.90;;
78887;SDS011;68276;49.326;8.690;2023-06-04T03:54:06;4.90;;;0.93;;
78887;SDS011;68276;49.326;8.690;2023-06-04T03:56:31;4.68;;;1.10;;
78887;SDS011;68276;49.326;8.690;2023-06-04T03:58:57;4.80;;;0.90;;
78887;SDS011;68276;49.326;8.690;2023-06-04T04:01:23;4.10;;;0.88;;
78887;SDS011;68276;49.326;8.690;2023-06-04T04:03:49;4.00;;;0.95;;
78887;SDS011;68276;49.326;8.690;2023-06-04T04:06:16;4.15;;;1.00;;
78887;SDS011;68276;49.326;8.690;2023-06-04T04:08:42;4.25;;;1.00;;
78887;SDS011;68276;49.326;8.690;2023-06-04T04:11:09;4.68;;;0.90;;
78887;SDS011;68276;49.326;8.690;2023-06-04T04:13:39;3.80;;;1.15;;
78887;SDS011;68276;49.326;8.690;2023-06-04T04:16:05;2.85;;;0.90;;
78887;SDS011;68276;49.326;8.690;2023-06-04T04:18:34;4.97;;;0.90;;
78887;SDS011;68276;49.326;8.690;2023-06-04T04:21:01;2.67;;;0.90;;
78887;SDS011;68276;49.326;8.690;2023-06-04T04:23:28;3.97;;;1.00;;
78887;SDS011;68276;49.326;8.690;2023-06-04T04:28:21;3.58;;;1.05;;
78887;SDS011;68276;49.326;8.690;2023-06-04T04:30:47;4.00;;;0.95;;
78887;SDS011;68276;49.326;8.690;2023-06-04T04:33:13;4.22;;;0.98;;
78887;SDS011;68276;49.326;8.690;2023-06-04T04:35:41;4.68;;;0.90;;
78887;SDS011;68276;49.326;8.690;2023-06-04T04:38:07;4.32;;;0.80;;
78887;SDS011;68276;49.326;8.690;2023-06-04T04:40:33;3.10;;;1.00;;
78887;SDS011;68276;49.326;8.690;2023-06-04T04:42:58;3.20;;;0.60;;
78887;SDS011;68276;49.326;8.690;2023-06-04T04:45:24;5.82;;;0.98;;
78887;SDS011;68276;49.326;8.690;2023-06-04T04:47:49;3.60;;;0.93;;
78887;SDS011;68276;49.326;8.690;2023-06-04T04:50:16;3.10;;;1.00;;
78887;SDS011;68276;49.326;8.690;2023-06-04T04:52:42;2.75;;;0.80;;
78887;SDS011;68276;49.326;8.690;2023-06-04T04:55:08;4.30;;;1.00;;
78887;SDS011;68276;49.326;8.690;2023-06-04T04:57:33;2.42;;;0.77;;
78887;SDS011;68276;49.326;8.690;2023-06-04T04:59:59;3.35;;;0.90;;
78887;SDS011;68276;49.326;8.690;2023-06-04T05:02:24;4.37;;;1.17;;
78887;SDS011;68276;49.326;8.690;2023-06-04T05:04:49;3.23;;;0.80;;
78887;SDS011;68276;49.326;8.690;2023-06-04T05:07:15;3.00;;;0.80;;
78887;SDS011;68276;49.326;8.690;2023-06-04T05:09:40;4.75;;;0.93;;
78887;SDS011;68276;49.326;8.690;2023-06-04T05:12:06;2.55;;;0.90;;
78887;SDS011;68276;49.326;8.690;2023-06-04T05:14:32;2.72;;;0.80;;
78887;SDS011;68276;49.326;8.690;2023-06-04T05:16:57;4.07;;;1.00;;
78887;SDS011;68276;49.326;8.690;2023-06-04T05:19:23;2.57;;;0.70;;
78887;SDS011;68276;49.326;8.690;2023-06-04T05:21:49;4.25;;;0.98;;
78887;SDS011;68276;49.326;8.690;2023-06-04T05:24:14;2.35;;;0.70;;
78887;SDS011;68276;49.326;8.690;2023-06-04T05:26:40;5.68;;;1.02;;
78887;SDS011;68276;49.326;8.690;2023-06-04T05:29:06;5.47;;;1.00;;
78887;SDS011;68276;49.326;8.690;2023-06-04T05:33:58;4.50;;;1.00;;
78887;SDS011;68276;49.326;8.690;2023-06-04T05:36:26;2.85;;;1.00;;
78887;SDS011;68276;49.326;8.690;2023-06-04T05:38:52;5.25;;;1.00;;
78887;SDS011;68276;49.326;8.690;2023-06-04T05:41:22;3.92;;;1.00;;
78887;SDS011;68276;49.326;8.690;2023-06-04T05:43:50;4.18;;;0.98;;
78887;SDS011;68276;49.326;8.690;2023-06-04T05:46:16;4.72;;;1.17;;
78887;SDS011;68276;49.326;8.690;2023-06-04T05:48:42;7.72;;;2.85;;
78887;SDS011;68276;49.326;8.690;2023-06-04T05:51:07;2.60;;;0.93;;
78887;SDS011;68276;49.326;8.690;2023-06-04T05:53:33;4.35;;;1.27;;
78887;SDS011;68276;49.326;8.690;2023-06-04T05:55:58;4.85;;;1.25;;
78887;SDS011;68276;49.326;8.690;2023-06-04T05:58:24;2.97;;;1.07;;
78887;SDS011;68276;49.326;8.690;2023-06-04T06:00:50;3.40;;;0.95;;
78887;SDS011;68276;49.326;8.690;2023-06-04T06:03:15;5.72;;;0.90;;
78887;SDS011;68276;49.326;8.690;2023-06-04T06:05:42;3.53;;;1.10;;
78887;SDS011;68276;49.326;8.690;2023-06-04T06:10:33;2.30;;;0.80;;
78887;SDS011;68276;49.326;8.690;2023-06-04T06:12:58;2.33;;;0.70;;
78887;SDS011;68276;49.326;8.690;2023-06-04T06:15:25;4.05;;;1.00;;
78887;SDS011;68276;49.326;8.690;2023-06-04T06:17:51;2.75;;;0.90;;
78887;SDS011;68276;49.326;8.690;2023-06-04T06:20:17;4.28;;;0.90;;
78887;SDS011;68276;49.326;8.690;2023-06-04T06:25:08;4.80;;;1.02;;
78887;SDS011;68276;49.326;8.690;2023-06-04T06:27:34;3.20;;;1.00;;
78887;SDS011;68276;49.326;8.690;2023-06-04T06:30:00;4.18;;;1.17;;
78887;SDS011;68276;49.326;8.690;2023-06-04T06:32:25;2.65;;;0.85;;
78887;SDS011;68276;49.326;8.690;2023-06-04T06:34:52;2.70;;;1.00;;
78887;SDS011;68276;49.326;8.690;2023-06-04T06:37:17;5.07;;;0.95;;
78887;SDS011;68276;49.326;8.690;2023-06-04T06:39:43;5.43;;;1.80;;
78887;SDS011;68276;49.326;8.690;2023-06-04T06:42:08;2.70;;;0.83;;
78887;SDS011;68276;49.326;8.690;2023-06-04T06:44:33;4.93;;;1.03;;
78887;SDS011;68276;49.326;8.690;2023-06-04T06:46:59;5.43;;;1.20;;
78887;SDS011;68276;49.326;8.690;2023-06-04T06:49:24;3.20;;;0.87;;
78887;SDS011;68276;49.326;8.690;2023-06-04T06:51:50;4.60;;;1.30;;
78887;SDS011;68276;49.326;8.690;2023-06-04T06:54:16;4.03;;;0.93;;
78887;SDS011;68276;49.326;8.690;2023-06-04T06:56:42;3.72;;;0.90;;
78887;SDS011;68276;49.326;8.690;2023-06-04T06:59:07;6.03;;;1.47;;
78887;SDS011;68276;49.326;8.690;2023-06-04T07:01:32;5.77;;;1.17;;
78887;SDS011;68276;49.326;8.690;2023-06-04T07:03:58;6.78;;;1.23;;
78887;SDS011;68276;49.326;8.690;2023-06-04T07:06:24;4.05;;;1.10;;
78887;SDS011;68276;49.326;8.690;2023-06-04T07:08:49;4.13;;;1.08;;
78887;SDS011;68276;49.326;8.690;2023-06-04T07:11:15;4.57;;;1.20;;
78887;SDS011;68276;49.326;8.690;2023-06-04T07:16:07;6.57;;;1.15;;
78887;SDS011;68276;49.326;8.690;2023-06-04T07:18:32;4.63;;;1.08;;
78887;SDS011;68276;49.326;8.690;2023-06-04T07:20:58;7.75;;;1.10;;
78887;SDS011;68276;49.326;8.690;2023-06-04T07:23:24;3.92;;;1.10;;
78887;SDS011;68276;49.326;8.690;2023-06-04T07:25:49;3.88;;;1.17;;
78887;SDS011;68276;49.326;8.690;2023-06-04T07:28:15;6.85;;;1.40;;
78887;SDS011;68276;49.326;8.690;2023-06-04T07:30:40;6.00;;;1.50;;
78887;SDS011;68276;49.326;8.690;2023-06-04T07:33:06;3.13;;;1.00;;
78887;SDS011;68276;49.326;8.690;2023-06-04T07:35:31;3.92;;;1.10;;
78887;SDS011;68276;49.326;8.690;2023-06-04T07:37:57;3.35;;;1.10;;
78887;SDS011;68276;49.326;8.690;2023-06-04T07:40:22;4.83;;;1.20;;
78887;SDS011;68276;49.326;8.690;2023-06-04T07:42:48;4.45;;;1.30;;
78887;SDS011;68276;49.326;8.690;2023-06-04T07:45:13;7.07;;;1.27;;
78887;SDS011;68276;49.326;8.690;2023-06-04T07:47:40;3.45;;;1.00;;
78887;SDS011;68276;49.326;8.690;2023-06-04T07:50:06;4.57;;;1.17;;
78887;SDS011;68276;49.326;8.690;2023-06-04T07:52:32;6.45;;;1.27;;
78887;SDS011;68276;49.326;8.690;2023-06-04T07:54:58;4.72;;;1.20;;
78887;SDS011;68276;49.326;8.690;2023-06-04T07:57:25;4.32;;;1.40;;
78887;SDS011;68276;49.326;8.690;2023-06-04T07:59:51;6.50;;;1.40;;
78887;SDS011;68276;49.326;8.690;2023-06-04T08:04:42;5.50;;;1.20;;
78887;SDS011;68276;49.326;8.690;2023-06-04T08:07:07;5.25;;;1.42;;
78887;SDS011;68276;49.326;8.690;2023-06-04T08:09:32;2.97;;;1.05;;
78887;SDS011;68276;49.326;8.690;2023-06-04T08:11:59;4.60;;;1.30;;
78887;SDS011;68276;49.326;8.690;2023-06-04T08:14:24;4.55;;;1.40;;
78887;SDS011;68276;49.326;8.690;2023-06-04T08:16:52;4.95;;;1.20;;
78887;SDS011;68276;49.326;8.690;2023-06-04T08:19:18;5.20;;;1.40;;
78887;SDS011;68276;49.326;8.690;2023-06-04T08:21:44;6.05;;;1.30;;
78887;SDS011;68276;49.326;8.690;2023-06-04T08:24:10;6.15;;;1.35;;
78887;SDS011;68276;49.326;8.690;2023-06-04T08:26:36;3.92;;;1.30;;
78887;SDS011;68276;49.326;8.690;2023-06-04T08:29:04;6.10;;;1.40;;
78887;SDS011;68276;49.326;8.690;2023-06-04T08:31:30;5.63;;;1.45;;
78887;SDS011;68276;49.326;8.690;2023-06-04T08:33:56;6.35;;;1.70;;
78887;SDS011;68276;49.326;8.690;2023-06-04T08:38:46;4.50;;;1.30;;
78887;SDS011;68276;49.326;8.690;2023-06-04T08:41:17;4.97;;;1.20;;
78887;SDS011;68276;49.326;8.690;2023-06-04T08:43:45;4.68;;;1.20;;
78887;SDS011;68276;49.326;8.690;2023-06-04T08:46:11;3.63;;;1.05;;
78887;SDS011;68276;49.326;8.690;2023-06-04T08:51:02;4.53;;;1.20;;
78887;SDS011;68276;49.326;8.690;2023-06-04T08:53:32;5.85;;;1.27;;
78887;SDS011;68276;49.326;8.690;2023-06-04T08:58:23;5.13;;;1.40;;
78887;SDS011;68276;49.326;8.690;2023-06-04T09:00:50;4.80;;;1.50;;
78887;SDS011;68276;49.326;8.690;2023-06-04T09:03:16;4.93;;;1.40;;
78887;SDS011;68276;49.326;8.690;2023-06-04T09:05:44;5.75;;;1.38;;
78887;SDS011;68276;49.326;8.690;2023-06-04T09:08:13;4.65;;;1.30;;
78887;SDS011;68276;49.326;8.690;2023-06-04T09:10:42;5.68;;;1.45;;
78887;SDS011;68276;49.326;8.690;2023-06-04T09:13:11;5.88;;;1.40;;
78887;SDS011;68276;49.326;8.690;2023-06-04T09:15:41;5.78;;;1.40;;
78887;SDS011;68276;49.326;8.690;2023-06-04T09:18:06;3.90;;;1.38;;
78887;SDS011;68276;49.326;8.690;2023-06-04T09:22:58;4.63;;;1.33;;
78887;SDS011;68276;49.326;8.690;2023-06-04T09:27:53;4.78;;;1.60;;
78887;SDS011;68276;49.326;8.690;2023-06-04T09:30:22;4.20;;;1.20;;
78887;SDS011;68276;49.326;8.690;2023-06-04T09:32:48;5.97;;;1.23;;
78887;SDS011;68276;49.326;8.690;2023-06-04T09:37:53;6.28;;;1.40;;
78887;SDS011;68276;49.326;8.690;2023-06-04T09:40:21;4.15;;;1.23;;
78887;SDS011;68276;49.326;8.690;2023-06-04T09:45:28;4.35;;;1.25;;
78887;SDS011;68276;49.326;8.690;2023-06-04T09:47:55;5.72;;;1.33;;
78887;SDS011;68276;49.326;8.690;2023-06-04T09:52:53;3.97;;;1.30;;
78887;SDS011;68276;49.326;8.690;2023-06-04T09:55:19;7.22;;;1.33;;
78887;SDS011;68276;49.326;8.690;2023-06-04T09:57:48;3.97;;;1.10;;
78887;SDS011;68276;49.326;8.690;2023-06-04T10:00:19;5.80;;;1.48;;
78887;SDS011;68276;49.326;8.690;2023-06-04T10:02:49;4.45;;;1.20;;
78887;SDS011;68276;49.326;8.690;2023-06-04T10:05:27;4.05;;;1.27;;
78887;SDS011;68276;49.326;8.690;2023-06-04T10:07:56;6.30;;;1.50;;
78887;SDS011;68276;49.326;8.690;2023-06-04T10:10:25;5.00;;;1.30;;
78887;SDS011;68276;49.326;8.690;2023-06-04T10:12:59;3.95;;;1.30;;
78887;SDS011;68276;49.326;8.690;2023-06-04T10:15:28;3.95;;;1.40;;
78887;SDS011;68276;49.326;8.690;2023-06-04T10:20:20;6.85;;;1.52;;
78887;SDS011;68276;49.326;8.690;2023-06-04T10:22:46;4.30;;;1.70;;
78887;SDS011;68276;49.326;8.690;2023-06-04T10:25:14;4.05;;;1.17;;
78887;SDS011;68276;49.326;8.690;2023-06-04T10:27:41;3.42;;;1.02;;
78887;SDS011;68276;49.326;8.690;2023-06-04T10:30:06;4.07;;;1.30;;
78887;SDS011;68276;49.326;8.690;2023-06-04T10:32:33;3.90;;;1.25;;
78887;SDS011;68276;49.326;8.690;2023-06-04T10:35:02;3.72;;;1.15;;
78887;SDS011;68276;49.326;8.690;2023-06-04T10:37:29;5.25;;;1.27;;
78887;SDS011;68276;49.326;8.690;2023-06-04T10:39:55;5.03;;;1.35;;
78887;SDS011;68276;49.326;8.690;2023-06-04T10:42:22;5.35;;;1.25;;
78887;SDS011;68276;49.326;8.690;2023-06-04T10:44:49;4.50;;;1.42;;
78887;SDS011;68276;49.326;8.690;2023-06-04T10:47:23;5.50;;;1.35;;
78887;SDS011;68276;49.326;8.690;2023-06-04T10:49:52;4.28;;;1.40;;
78887;SDS011;68276;49.326;8.690;2023-06-04T10:52:31;4.50;;;1.40;;
78887;SDS011;68276;49.326;8.690;2023-06-04T10:55:02;5.07;;;1.50;;
78887;SDS011;68276;49.326;8.690;2023-06-04T10:57:29;4.78;;;1.33;;
78887;SDS011;68276;49.326;8.690;2023-06-04T10:59:58;5.18;;;1.10;;
78887;SDS011;68276;49.326;8.690;2023-06-04T11:02:25;5.38;;;1.20;;
78887;SDS011;68276;49.326;8.690;2023-06-04T11:04:58;5.15;;;1.25;;
78887;SDS011;68276;49.326;8.690;2023-06-04T11:07:26;3.55;;;1.15;;
78887;SDS011;68276;49.326;8.690;2023-06-04T11:09:52;4.68;;;1.20;;
78887;SDS011;68276;49.326;8.690;2023-06-04T11:12:18;6.80;;;1.60;;
78887;SDS011;68276;49.326;8.690;2023-06-04T11:14:56;5.50;;;1.20;;
78887;SDS011;68276;49.326;8.690;2023-06-04T11:17:22;7.57;;;1.60;;
78887;SDS011;68276;49.326;8.690;2023-06-04T11:19:48;5.40;;;1.30;;
78887;SDS011;68276;49.326;8.690;2023-06-04T11:22:14;3.42;;;1.23;;
78887;SDS011;68276;49.326;8.690;2023-06-04T11:24:39;4.45;;;1.40;;
78887;SDS011;68276;49.326;8.690;2023-06-04T11:27:05;4.65;;;1.20;;
78887;SDS011;68276;49.326;8.690;2023-06-04T11:31:56;3.88;;;1.30;;
78887;SDS011;68276;49.326;8.690;2023-06-04T11:34:30;4.15;;;1.10;;
78887;SDS011;68276;49.326;8.690;2023-06-04T11:37:06;4.28;;;1.27;;
78887;SDS011;68276;49.326;8.690;2023-06-04T11:39:36;3.65;;;1.25;;
78887;SDS011;68276;49.326;8.690;2023-06-04T11:42:04;5.22;;;1.20;;
78887;SDS011;68276;49.326;8.690;2023-06-04T11:44:32;5.43;;;1.42;;
78887;SDS011;68276;49.326;8.690;2023-06-04T11:46:57;5.95;;;1.50;;
78887;SDS011;68276;49.326;8.690;2023-06-04T11:49:23;5.03;;;1.50;;
78887;SDS011;68276;49.326;8.690;2023-06-04T11:51:49;5.05;;;1.23;;
78887;SDS011;68276;49.326;8.690;2023-06-04T11:54:16;4.88;;;1.33;;
78887;SDS011;68276;49.326;8.690;2023-06-04T11:56:43;7.90;;;1.35;;
78887;SDS011;68276;49.326;8.690;2023-06-04T11:59:09;3.08;;;1.15;;
78887;SDS011;68276;49.326;8.690;2023-06-04T12:01:38;4.63;;;1.30;;
78887;SDS011;68276;49.326;8.690;2023-06-04T12:04:14;3.80;;;1.17;;
78887;SDS011;68276;49.326;8.690;2023-06-04T12:06:57;4.22;;;1.27;;
78887;SDS011;68276;49.326;8.690;2023-06-04T12:09:24;4.85;;;1.42;;
78887;SDS011;68276;49.326;8.690;2023-06-04T12:12:06;5.25;;;1.20;;
78887;SDS011;68276;49.326;8.690;2023-06-04T12:14:33;4.53;;;1.55;;
78887;SDS011;68276;49.326;8.690;2023-06-04T12:19:26;4.38;;;1.13;;
78887;SDS011;68276;49.326;8.690;2023-06-04T12:22:01;4.47;;;1.58;;
78887;SDS011;68276;49.326;8.690;2023-06-04T12:24:29;7.90;;;1.60;;
78887;SDS011;68276;49.326;8.690;2023-06-04T12:27:02;4.97;;;1.50;;
78887;SDS011;68276;49.326;8.690;2023-06-04T12:32:00;5.30;;;1.40;;
78887;SDS011;68276;49.326;8.690;2023-06-04T12:34:29;5.38;;;1.50;;
78887;SDS011;68276;49.326;8.690;2023-06-04T12:36:54;4.50;;;1.30;;
78887;SDS011;68276;49.326;8.690;2023-06-04T12:39:19;4.30;;;1.55;;
78887;SDS011;68276;49.326;8.690;2023-06-04T12:41:45;5.63;;;1.70;;
78887;SDS011;68276;49.326;8.690;2023-06-04T12:44:11;4.03;;;1.30;;
78887;SDS011;68276;49.326;8.690;2023-06-04T12:46:36;4.40;;;1.35;;
78887;SDS011;68276;49.326;8.690;2023-06-04T12:49:02;5.60;;;1.50;;
78887;SDS011;68276;49.326;8.690;2023-06-04T12:51:27;5.80;;;1.57;;
78887;SDS011;68276;49.326;8.690;2023-06-04T12:53:53;6.00;;;1.73;;
78887;SDS011;68276;49.326;8.690;2023-06-04T12:56:18;7.88;;;1.52;;
78887;SDS011;68276;49.326;8.690;2023-06-04T12:58:44;5.07;;;1.55;;
78887;SDS011;68276;49.326;8.690;2023-06-04T13:01:09;5.43;;;1.55;;
78887;SDS011;68276;49.326;8.690;2023-06-04T13:03:36;6.20;;;1.58;;
78887;SDS011;68276;49.326;8.690;2023-06-04T13:06:02;6.07;;;1.75;;
78887;SDS011;68276;49.326;8.690;2023-06-04T13:08:28;8.55;;;1.90;;
78887;SDS011;68276;49.326;8.690;2023-06-04T13:10:53;5.65;;;1.60;;
78887;SDS011;68276;49.326;8.690;2023-06-04T13:13:19;4.38;;;1.40;;
78887;SDS011;68276;49.326;8.690;2023-06-04T13:15:45;4.25;;;1.50;;
78887;SDS011;68276;49.326;8.690;2023-06-04T13:18:11;6.03;;;1.80;;
78887;SDS011;68276;49.326;8.690;2023-06-04T13:20:36;5.55;;;1.55;;
78887;SDS011;68276;49.326;8.690;2023-06-04T13:23:02;5.68;;;1.77;;
78887;SDS011;68276;49.326;8.690;2023-06-04T13:25:28;9.40;;;2.58;;
78887;SDS011;68276;49.326;8.690;2023-06-04T13:27:54;5.57;;;1.60;;
78887;SDS011;68276;49.326;8.690;2023-06-04T13:30:20;4.57;;;1.40;;
78887;SDS011;68276;49.326;8.690;2023-06-04T13:32:46;5.15;;;1.58;;
78887;SDS011;68276;49.326;8.690;2023-06-04T13:35:11;5.07;;;1.58;;
78887;SDS011;68276;49.326;8.690;2023-06-04T13:37:37;5.47;;;1.63;;
78887;SDS011;68276;49.326;8.690;2023-06-04T13:40:02;6.00;;;1.50;;
78887;SDS011;68276;49.326;8.690;2023-06-04T13:42:28;4.65;;;1.60;;
78887;SDS011;68276;49.326;8.690;2023-06-04T13:44:54;5.43;;;1.63;;
78887;SDS011;68276;49.326;8.690;2023-06-04T13:47:19;6.07;;;1.40;;
78887;SDS011;68276;49.326;8.690;2023-06-04T13:49:45;5.78;;;1.65;;
78887;SDS011;68276;49.326;8.690;2023-06-04T13:52:11;4.55;;;1.48;;
78887;SDS011;68276;49.326;8.690;2023-06-04T13:54:36;7.45;;;1.63;;
78887;SDS011;68276;49.326;8.690;2023-06-04T13:57:02;7.07;;;1.90;;
78887;SDS011;68276;49.326;8.690;2023-06-04T13:59:31;5.18;;;1.58;;
78887;SDS011;68276;49.326;8.690;2023-06-04T14:01:57;5.25;;;1.80;;
78887;SDS011;68276;49.326;8.690;2023-06-04T14:04:22;5.27;;;1.40;;
78887;SDS011;68276;49.326;8.690;2023-06-04T14:06:48;6.13;;;1.73;;
78887;SDS011;68276;49.326;8.690;2023-06-04T14:09:14;6.20;;;1.47;;
78887;SDS011;68276;49.326;8.690;2023-06-04T14:11:40;4.78;;;1.60;;
78887;SDS011;68276;49.326;8.690;2023-06-04T14:14:06;5.20;;;1.53;;
78887;SDS011;68276;49.326;8.690;2023-06-04T14:16:32;4.82;;;1.60;;
78887;SDS011;68276;49.326;8.690;2023-06-04T14:18:57;5.00;;;1.97;;
78887;SDS011;68276;49.326;8.690;2023-06-04T14:21:22;7.13;;;1.60;;
78887;SDS011;68276;49.326;8.690;2023-06-04T14:23:48;7.28;;;1.95;;
78887;SDS011;68276;49.326;8.690;2023-06-04T14:26:15;7.07;;;1.73;;
78887;SDS011;68276;49.326;8.690;2023-06-04T14:28:42;5.38;;;1.80;;
78887;SDS011;68276;49.326;8.690;2023-06-04T14:31:08;5.80;;;1.80;;
78887;SDS011;68276;49.326;8.690;2023-06-04T14:33:34;6.00;;;1.95;;
78887;SDS011;68276;49.326;8.690;2023-06-04T14:36:01;4.05;;;1.80;;
78887;SDS011;68276;49.326;8.690;2023-06-04T14:38:26;4.30;;;1.90;;
78887;SDS011;68276;49.326;8.690;2023-06-04T14:40:51;6.25;;;1.67;;
78887;SDS011;68276;49.326;8.690;2023-06-04T14:43:17;5.13;;;1.70;;
78887;SDS011;68276;49.326;8.690;2023-06-04T14:45:42;4.27;;;1.57;;
78887;SDS011;68276;49.326;8.690;2023-06-04T14:48:08;7.60;;;1.70;;
78887;SDS011;68276;49.326;8.690;2023-06-04T14:50:34;4.70;;;1.70;;
78887;SDS011;68276;49.326;8.690;2023-06-04T14:52:59;4.88;;;1.65;;
78887;SDS011;68276;49.326;8.690;2023-06-04T14:55:25;6.30;;;1.63;;
78887;SDS011;68276;49.326;8.690;2023-06-04T14:57:50;5.73;;;1.70;;
78887;SDS011;68276;49.326;8.690;2023-06-04T15:00:15;4.82;;;1.70;;
78887;SDS011;68276;49.326;8.690;2023-06-04T15:02:41;6.28;;;1.80;;
78887;SDS011;68276;49.326;8.690;2023-06-04T15:05:06;7.82;;;2.20;;
78887;SDS011;68276;49.326;8.690;2023-06-04T15:07:32;8.02;;;1.85;;
78887;SDS011;68276;49.326;8.690;2023-06-04T15:09:58;7.13;;;1.83;;
78887;SDS011;68276;49.326;8.690;2023-06-04T15:12:23;10.45;;;4.75;;
78887;SDS011;68276;49.326;8.690;2023-06-04T15:14:49;4.97;;;1.88;;
78887;SDS011;68276;49.326;8.690;2023-06-04T15:17:14;5.68;;;1.67;;
78887;SDS011;68276;49.326;8.690;2023-06-04T15:19:40;5.18;;;1.90;;
78887;SDS011;68276;49.326;8.690;2023-06-04T15:22:05;6.00;;;1.77;;
78887;SDS011;68276;49.326;8.690;2023-06-04T15:24:30;4.93;;;1.80;;
78887;SDS011;68276;49.326;8.690;2023-06-04T15:26:57;4.68;;;1.70;;
78887;SDS011;68276;49.326;8.690;2023-06-04T15:29:22;6.30;;;1.52;;
78887;SDS011;68276;49.326;8.690;2023-06-04T15:31:47;4.53;;;1.60;;
78887;SDS011;68276;49.326;8.690;2023-06-04T15:34:13;5.50;;;1.70;;
78887;SDS011;68276;49.326;8.690;2023-06-04T15:36:38;6.82;;;1.90;;
78887;SDS011;68276;49.326;8.690;2023-06-04T15:39:04;4.97;;;1.90;;
78887;SDS011;68276;49.326;8.690;2023-06-04T15:41:30;5.35;;;1.67;;